Time;durP1;ratioP1;P1;durP2;ratioP2;P2;SDS_P1;SDS_P2;PMS_P1;PMS_P2;Temp;Humidity;BMP_temperature;BMP_pressure;BME280_temperature;BME280_humidity;BME280_pressure;Samples;Min_cycle;Max_cycle;Signal;HPM_P1;HPM_P2
2022/05/19 00:01:04;;;;;;;;;;;;;;;22.99;45.79;96180.66;2089519;28;2251;-67
2022/05/19 00:02:08;;;;;;;;;;;;;;;23.01;45.98;96181.25;2087637;28;1792;-68
2022/05/19 00:03:10;;;;;;;;;;;;;;;23.02;45.82;96182.91;2090100;28;1910;-62
2022/05/19 00:04:14;;;;;;;;;;;;;;;23.03;46.25;96186.44;2088649;28;1410;-67
2022/05/19 00:05:16;;;;;;;;;;;;;;;23.04;46.00;96188.06;2089856;28;1171;-66
2022/05/19 00:06:18;;;;;;;;;;;;;;;23.05;45.85;96184.38;2088853;28;1516;-67
2022/05/19 00:07:21;;;;;;;;;;;;;;;23.07;45.63;96181.50;2081642;28;1588;-66
2022/05/19 00:08:24;;;;;;;;;;;;;;;23.04;45.53;96182.72;2087911;28;1733;-66
2022/05/19 00:09:27;;;;;;;;;;;;;;;23.04;45.60;96180.03;2090106;28;1009;-67
2022/05/19 00:10:30;;;;;;;;;;;;;;;23.05;45.62;96183.53;2089858;28;1511;-68
2022/05/19 00:11:33;;;;;;;;;;;;;;;23.06;45.65;96187.88;2088388;28;1504;-67
2022/05/19 00:12:35;;;;;;;;;;;;;;;23.06;45.38;96185.22;2086910;28;1606;-68
2022/05/19 00:13:38;;;;;;;;;;;;;;;23.06;45.60;96185.22;2089916;28;1702;-66
2022/05/19 00:14:40;;;;;;;;;;;;;;;23.08;45.73;96193.84;2088540;28;1530;-67
2022/05/19 00:15:43;;;;;;;;;;;;;;;23.08;45.38;96189.34;2085697;28;1484;-67
2022/05/19 00:16:45;;;;;;;;;;;;;;;23.09;45.85;96179.44;2089395;28;1865;-67
2022/05/19 00:17:48;;;;;;;;;;;;;;;23.09;45.64;96190.16;2086105;28;1567;-64
2022/05/19 00:18:50;;;;;;;;;;;;;;;23.08;45.45;96183.97;2078765;28;1681;-67
2022/05/19 00:19:52;;;;;;;;;;;;;;;23.07;45.55;96185.00;2089264;28;1480;-67
2022/05/19 00:20:54;;;;;;;;;;;;;;;23.11;45.49;96182.75;2089957;28;1647;-67
2022/05/19 00:21:57;;;;;;;;;;;;;;;23.10;45.48;96176.53;2089897;28;1060;-67
2022/05/19 00:22:59;;;;;;;;;;;;;;;23.10;45.35;96184.59;2087633;28;1911;-67
2022/05/19 00:24:02;;;;;;;;;;;;;;;23.10;45.45;96184.59;2088061;28;1541;-62
2022/05/19 00:25:04;;;;;;;;;;;;;;;23.10;45.80;96183.75;2089682;28;1093;-66
2022/05/19 00:26:08;;;;;;;;;;;;;;;23.11;45.75;96188.13;2088674;28;1490;-67
2022/05/19 00:27:10;;;;;;;;;;;;;;;23.09;45.60;96184.81;2088603;28;1562;-67
2022/05/19 00:28:13;;;;;;;;;;;;;;;23.09;45.64;96180.25;2088921;28;1519;-63
2022/05/19 00:29:14;;;;;;;;;;;;;;;23.10;45.55;96189.94;2088307;28;1545;-63
2022/05/19 00:30:17;;;;;;;;;;;;;;;23.10;45.48;96183.75;2081526;28;1816;-67
2022/05/19 00:31:19;;;;;;;;;;;;;;;23.09;45.61;96190.16;2089436;28;1326;-66
2022/05/19 00:32:22;;;;;;;;;;;;;;;23.09;45.49;96193.66;2088742;28;1367;-67
2022/05/19 00:33:24;;;;;;;;;;;;;;;23.11;45.36;96190.81;2089538;28;1068;-66
2022/05/19 00:34:27;;;;;;;;;;;;;;;23.09;45.30;96191.00;2088164;28;1569;-66
2022/05/19 00:35:28;;;;;;;;;;;;;;;23.09;45.68;96191.00;2087912;28;1508;-66
2022/05/19 00:36:32;;;;;;;;;;;;;;;23.10;45.56;96192.63;2089836;28;1075;-62
2022/05/19 00:37:34;;;;;;;;;;;;;;;23.11;45.54;96197.00;2089446;28;1704;-66
2022/05/19 00:38:37;;;;;;;;;;;;;;;23.11;45.47;96193.47;2088744;28;1665;-67
2022/05/19 00:39:39;;;;;;;;;;;;;;;23.11;45.29;96194.31;2089990;28;1248;-67
2022/05/19 00:40:46;;;;;;;;;;;;;;;23.12;45.41;96195.13;2085792;28;1503;-65
2022/05/19 00:42:43;;;;;;;;;;;;;;;23.06;45.55;96198.59;2084599;28;1612;-65
2022/05/19 00:43:12;;;;;;;;;;;;;;;22.85;45.84;96200.34;2088842;28;1902;-66
2022/05/19 00:44:15;;;;;;;;;;;;;;;22.78;46.35;96205.66;2088055;28;1677;-65
2022/05/19 00:45:18;;;;;;;;;;;;;;;22.74;46.36;96200.91;2089917;28;1034;-65
2022/05/19 00:46:22;;;;;;;;;;;;;;;22.72;46.67;96200.25;2088602;28;1549;-65
2022/05/19 00:47:25;;;;;;;;;;;;;;;22.69;46.48;96206.00;2089048;28;1402;-65
2022/05/19 00:48:32;;;;;;;;;;;;;;;22.68;46.79;96205.16;2088123;28;1470;-65
2022/05/19 00:49:37;;;;;;;;;;;;;;;22.67;46.52;96205.34;2089934;28;1048;-65
2022/05/19 00:50:41;;;;;;;;;;;;;;;22.66;46.67;96211.75;2089203;28;1504;-64
2022/05/19 00:51:48;;;;;;;;;;;;;;;22.66;46.74;96217.09;2089491;28;1712;-65
2022/05/19 00:52:51;;;;;;;;;;;;;;;22.66;46.88;96217.09;2079924;28;1511;-66
2022/05/19 00:53:55;;;;;;;;;;;;;;;22.64;46.63;96211.09;2089052;28;1611;-65
2022/05/19 00:55:02;;;;;;;;;;;;;;;22.65;46.98;96221.63;2088806;28;1855;-66
2022/05/19 00:56:08;;;;;;;;;;;;;;;22.64;46.66;96216.47;2089335;28;1973;-65
2022/05/19 00:57:14;;;;;;;;;;;;;;;22.65;46.67;96218.09;2091095;28;1531;-62
2022/05/19 00:58:19;;;;;;;;;;;;;;;22.64;46.88;96213.78;2091443;28;1636;-65
2022/05/19 00:59:24;;;;;;;;;;;;;;;22.62;46.93;96221.19;2089660;28;1530;-65
2022/05/19 01:00:29;;;;;;;;;;;;;;;22.63;46.96;96217.50;2091400;28;1113;-65
2022/05/19 01:01:33;;;;;;;;;;;;;;;22.63;47.17;96214.81;2090600;28;1540;-65
2022/05/19 01:02:37;;;;;;;;;;;;;;;22.63;46.88;96209.47;2088748;28;1465;-66
2022/05/19 01:03:42;;;;;;;;;;;;;;;22.63;46.86;96206.78;2084879;28;1910;-65
2022/05/19 01:04:47;;;;;;;;;;;;;;;22.64;47.01;96219.97;2086631;28;1077;-65
2022/05/19 01:05:52;;;;;;;;;;;;;;;22.62;46.82;96211.28;2091264;28;1052;-65
2022/05/19 01:06:56;;;;;;;;;;;;;;;22.65;47.00;96215.41;2089689;28;2122;-65
2022/05/19 01:08:01;;;;;;;;;;;;;;;22.64;46.88;96216.47;2090444;28;2014;-65
2022/05/19 01:09:06;;;;;;;;;;;;;;;22.63;47.21;96220.16;2090627;28;1542;-64
2022/05/19 01:10:09;;;;;;;;;;;;;;;22.65;46.88;96232.34;2082727;28;1191;-65
2022/05/19 01:11:11;;;;;;;;;;;;;;;22.63;47.10;96229.03;2088150;28;1483;-63
2022/05/19 01:12:15;;;;;;;;;;;;;;;22.64;47.03;96225.31;2091093;28;1319;-66
2022/05/19 01:13:17;;;;;;;;;;;;;;;22.63;47.01;96228.22;2089055;28;1484;-65
2022/05/19 01:14:20;;;;;;;;;;;;;;;22.64;47.10;96229.84;2090633;28;1721;-66
2022/05/19 01:15:22;;;;;;;;;;;;;;;22.63;47.10;96233.56;2081444;28;1761;-65
2022/05/19 01:16:26;;;;;;;;;;;;;;;22.63;47.06;96233.56;2089965;28;1461;-65
2022/05/19 01:17:27;;;;;;;;;;;;;;;22.65;46.83;96231.50;2090765;28;1468;-65
2022/05/19 01:18:31;;;;;;;;;;;;;;;22.63;46.94;96234.38;2088922;28;1518;-65
2022/05/19 01:19:34;;;;;;;;;;;;;;;22.65;46.99;96228.81;2091304;28;1022;-65
2022/05/19 01:20:37;;;;;;;;;;;;;;;22.65;47.38;96231.50;2090220;28;1584;-65
2022/05/19 01:21:39;;;;;;;;;;;;;;;22.66;47.13;96225.13;2091263;28;1078;-66
2022/05/19 01:22:45;;;;;;;;;;;;;;;22.65;46.98;96226.13;2090041;28;1647;-66
2022/05/19 01:23:52;;;;;;;;;;;;;;;22.63;46.98;96225.53;2085926;28;1971;-65
2022/05/19 01:25:00;;;;;;;;;;;;;;;22.63;46.77;96228.22;2087902;28;1510;-65
2022/05/19 01:26:09;;;;;;;;;;;;;;;22.64;47.32;96229.84;2078576;28;1135;-66
2022/05/19 01:27:12;;;;;;;;;;;;;;;22.65;47.14;96226.13;2084119;28;1572;-65
2022/05/19 01:28:16;;;;;;;;;;;;;;;22.65;46.76;96232.34;2088835;28;1622;-65
2022/05/19 01:29:19;;;;;;;;;;;;;;;22.65;46.85;96231.50;2090761;28;1615;-62
2022/05/19 01:30:22;;;;;;;;;;;;;;;22.65;47.46;96226.13;2089720;28;1504;-66
2022/05/19 01:31:31;;;;;;;;;;;;;;;22.65;46.95;96231.50;2090715;28;2072;-65
2022/05/19 01:32:34;;;;;;;;;;;;;;;22.65;47.02;96231.50;2089681;28;1685;-66
2022/05/19 01:33:37;;;;;;;;;;;;;;;22.64;47.21;96230.69;2090015;28;1561;-66
2022/05/19 01:34:40;;;;;;;;;;;;;;;22.65;46.96;96234.19;2082818;28;1040;-66
2022/05/19 01:35:42;;;;;;;;;;;;;;;22.63;47.00;96236.25;2086758;28;2098;-67
2022/05/19 01:36:45;;;;;;;;;;;;;;;22.62;47.03;96232.72;2090883;28;2082;-66
2022/05/19 01:37:46;;;;;;;;;;;;;;;22.62;46.94;96237.25;2085520;28;1520;-65
2022/05/19 01:38:51;;;;;;;;;;;;;;;22.60;47.07;96232.09;2086389;28;1465;-66
2022/05/19 01:39:57;;;;;;;;;;;;;;;22.61;46.91;96231.06;2090679;28;1052;-66
2022/05/19 01:41:05;;;;;;;;;;;;;;;22.62;47.08;96245.28;2091140;28;1611;-67
2022/05/19 01:42:14;;;;;;;;;;;;;;;22.62;47.02;96243.44;2089415;28;1663;-66
2022/05/19 01:43:23;;;;;;;;;;;;;;;22.61;46.83;96249.00;2091109;28;1092;-64
2022/05/19 01:44:31;;;;;;;;;;;;;;;22.62;47.18;96231.88;2087985;28;1963;-66
2022/05/19 01:45:40;;;;;;;;;;;;;;;22.63;47.45;96238.94;2090452;28;1542;-66
2022/05/19 01:46:45;;;;;;;;;;;;;;;22.64;47.15;96248.59;2089647;28;1567;-66
2022/05/19 01:47:49;;;;;;;;;;;;;;;22.64;47.08;96244.06;2090073;28;1643;-64
2022/05/19 01:48:55;;;;;;;;;;;;;;;22.63;47.53;96239.75;2085056;28;1450;-61
2022/05/19 01:50:02;;;;;;;;;;;;;;;22.64;46.98;96235.22;2084096;28;1839;-63
2022/05/19 01:51:09;;;;;;;;;;;;;;;22.65;47.01;96242.22;2090142;28;1519;-62
2022/05/19 01:52:16;;;;;;;;;;;;;;;22.63;47.04;96238.94;2090817;28;1052;-63
2022/05/19 01:53:23;;;;;;;;;;;;;;;22.64;47.21;96252.09;2090259;28;1586;-63
2022/05/19 01:54:28;;;;;;;;;;;;;;;22.64;47.43;96240.56;2090218;28;1695;-62
2022/05/19 01:55:37;;;;;;;;;;;;;;;22.67;47.38;96245.53;2090107;28;1394;-62
2022/05/19 01:56:42;;;;;;;;;;;;;;;22.67;47.11;96245.53;2090414;28;1691;-62
2022/05/19 01:57:49;;;;;;;;;;;;;;;22.66;47.17;96244.72;2090041;28;1545;-63
2022/05/19 01:58:56;;;;;;;;;;;;;;;22.64;47.21;96245.94;2088525;28;1491;-65
2022/05/19 02:00:04;;;;;;;;;;;;;;;22.64;47.62;96256.66;2088387;28;1434;-58
2022/05/19 02:01:07;;;;;;;;;;;;;;;22.64;47.53;96251.28;2086087;28;1231;-61
2022/05/19 02:02:12;;;;;;;;;;;;;;;22.63;47.44;96255.00;2088825;28;1490;-60
2022/05/19 02:03:19;;;;;;;;;;;;;;;22.65;46.96;96258.28;2089061;28;1588;-64
2022/05/19 02:04:24;;;;;;;;;;;;;;;22.59;47.25;96254.53;2090704;28;1910;-63
2022/05/19 02:05:33;;;;;;;;;;;;;;;22.60;46.92;96256.22;2090782;28;1184;-62
2022/05/19 02:06:39;;;;;;;;;;;;;;;22.61;47.06;96263.22;2090712;28;1109;-64
2022/05/19 02:07:45;;;;;;;;;;;;;;;22.61;47.16;96254.34;2087342;28;1440;-64
2022/05/19 02:08:49;;;;;;;;;;;;;;;22.63;46.78;96269.22;2090049;28;1060;-64
2022/05/19 02:09:55;;;;;;;;;;;;;;;22.60;46.96;96258.06;2089650;28;1509;-63
2022/05/19 02:10:59;;;;;;;;;;;;;;;22.62;47.07;96261.34;2089824;28;1619;-64
2022/05/19 02:12:02;;;;;;;;;;;;;;;22.63;47.07;96260.34;2081926;28;1494;-62
2022/05/19 02:13:05;;;;;;;;;;;;;;;22.61;46.90;96265.06;2089518;28;2317;-64
2022/05/19 02:14:12;;;;;;;;;;;;;;;22.60;47.26;96266.94;2089130;28;1571;-63
2022/05/19 02:15:16;;;;;;;;;;;;;;;22.60;47.10;96266.09;2090229;28;1496;-64
2022/05/19 02:16:19;;;;;;;;;;;;;;;22.60;46.86;96260.75;2090817;28;2205;-64
2022/05/19 02:17:23;;;;;;;;;;;;;;;22.59;47.27;96265.25;2089541;28;2452;-64
2022/05/19 02:18:28;;;;;;;;;;;;;;;22.58;47.20;96264.44;2090687;28;1662;-64
2022/05/19 02:19:33;;;;;;;;;;;;;;;22.58;47.21;96264.44;2089655;28;1560;-60
2022/05/19 02:20:37;;;;;;;;;;;;;;;22.59;47.30;96270.59;2088421;28;1518;-64
2022/05/19 02:21:39;;;;;;;;;;;;;;;22.58;47.15;96268.97;2089937;28;1500;-60
2022/05/19 02:22:44;;;;;;;;;;;;;;;22.58;47.39;96266.28;2087243;28;1532;-60
2022/05/19 02:23:46;;;;;;;;;;;;;;;22.60;47.21;96266.09;2085308;28;1100;-63
2022/05/19 02:24:51;;;;;;;;;;;;;;;22.60;47.30;96268.78;2090336;28;1934;-63
2022/05/19 02:25:53;;;;;;;;;;;;;;;22.60;47.27;96272.28;2090699;28;1120;-63
2022/05/19 02:26:56;;;;;;;;;;;;;;;22.58;47.48;96268.97;2090047;28;1471;-61
2022/05/19 02:28:02;;;;;;;;;;;;;;;22.58;47.11;96269.78;2089391;28;1478;-62
2022/05/19 02:29:07;;;;;;;;;;;;;;;22.59;47.43;96273.28;2089971;28;1517;-62
2022/05/19 02:30:12;;;;;;;;;;;;;;;22.58;47.46;96264.44;2089726;28;1621;-62
2022/05/19 02:31:16;;;;;;;;;;;;;;;22.62;47.51;96262.19;2090675;28;1078;-62
2022/05/19 02:32:18;;;;;;;;;;;;;;;22.61;47.65;96268.56;2088307;28;1625;-62
2022/05/19 02:33:21;;;;;;;;;;;;;;;22.62;47.56;96266.72;2090473;28;982;-62
2022/05/19 02:34:23;;;;;;;;;;;;;;;22.61;47.96;96268.56;2085740;28;1659;-62
2022/05/19 02:35:26;;;;;;;;;;;;;;;22.63;47.60;96271.06;2084322;28;1456;-63
2022/05/19 02:36:28;;;;;;;;;;;;;;;22.64;47.58;96272.72;2089780;28;1468;-62
2022/05/19 02:37:31;;;;;;;;;;;;;;;22.63;47.55;96271.06;2090151;28;1950;-63
2022/05/19 02:38:33;;;;;;;;;;;;;;;22.62;47.82;96264.03;2089743;28;1458;-63
2022/05/19 02:39:35;;;;;;;;;;;;;;;22.62;47.61;96264.84;2089464;28;1523;-63
2022/05/19 02:40:39;;;;;;;;;;;;;;;22.61;47.98;96268.56;2089728;28;1893;-63
2022/05/19 02:41:41;;;;;;;;;;;;;;;22.62;47.87;96269.41;2090537;28;1743;-64
2022/05/19 02:42:44;;;;;;;;;;;;;;;22.60;47.59;96266.09;2088243;28;1469;-64
2022/05/19 02:43:47;;;;;;;;;;;;;;;22.61;47.99;96265.06;2088106;28;1501;-64
2022/05/19 02:44:49;;;;;;;;;;;;;;;22.62;47.75;96258.69;2090435;28;1909;-64
2022/05/19 02:45:53;;;;;;;;;;;;;;;22.61;47.87;96267.75;2084869;28;1540;-63
2022/05/19 02:46:55;;;;;;;;;;;;;;;22.60;47.74;96266.09;2084350;28;1487;-63
2022/05/19 02:47:58;;;;;;;;;;;;;;;22.60;47.69;96269.59;2088278;28;1453;-63
2022/05/19 02:49:00;;;;;;;;;;;;;;;22.62;47.83;96261.34;2088866;28;1553;-65
2022/05/19 02:50:04;;;;;;;;;;;;;;;22.61;47.53;96265.91;2089380;28;1729;-64
2022/05/19 02:51:06;;;;;;;;;;;;;;;22.62;47.68;96269.41;2082173;28;1474;-64
2022/05/19 02:52:09;;;;;;;;;;;;;;;22.61;47.60;96273.09;2090131;28;1027;-64
2022/05/19 02:53:10;;;;;;;;;;;;;;;22.62;47.99;96269.41;2089077;28;1474;-64
2022/05/19 02:54:13;;;;;;;;;;;;;;;22.62;47.51;96269.41;2089952;28;1167;-64
2022/05/19 02:55:15;;;;;;;;;;;;;;;22.63;47.92;96266.53;2089812;28;1383;-65
2022/05/19 02:56:18;;;;;;;;;;;;;;;22.64;48.01;96264.69;2089764;28;1619;-64
2022/05/19 02:57:20;;;;;;;;;;;;;;;22.64;47.92;96268.19;2085534;28;1463;-64
2022/05/19 02:58:23;;;;;;;;;;;;;;;22.64;47.56;96270.88;2084684;28;1465;-65
2022/05/19 02:59:24;;;;;;;;;;;;;;;22.66;47.89;96268.00;2089531;28;1560;-65
2022/05/19 03:00:27;;;;;;;;;;;;;;;22.65;47.78;96267.19;2088553;28;1482;-65
2022/05/19 03:01:31;;;;;;;;;;;;;;;22.66;47.52;96273.38;2089124;28;1487;-64
2022/05/19 03:02:33;;;;;;;;;;;;;;;22.64;47.63;96268.19;2081992;28;1180;-65
2022/05/19 03:03:35;;;;;;;;;;;;;;;22.65;48.00;96269.00;2089592;28;1747;-65
2022/05/19 03:04:38;;;;;;;;;;;;;;;22.64;47.94;96273.53;2089388;28;1590;-65
2022/05/19 03:05:40;;;;;;;;;;;;;;;20.30;36.68;96263.56;2090248;28;1979;-63
2022/05/19 03:06:43;;;;;;;;;;;;;;;18.29;38.42;96277.28;2089983;28;1164;-60
2022/05/19 03:07:45;;;;;;;;;;;;;;;17.10;39.29;96273.00;2087805;28;1488;-59
2022/05/19 03:08:48;;;;;;;;;;;;;;;16.52;40.08;96270.97;2081367;28;1089;-59
2022/05/19 03:09:50;;;;;;;;;;;;;;;16.00;41.02;96266.41;2088057;28;1481;-61
2022/05/19 03:10:53;;;;;;;;;;;;;;;15.80;41.47;96271.03;2090205;28;1116;-60
2022/05/19 03:11:55;;;;;;;;;;;;;;;15.63;41.12;96266.53;2089246;28;1488;-59
2022/05/19 03:12:58;;;;;;;;;;;;;;;15.53;41.55;96266.56;2089340;28;1402;-61
2022/05/19 03:14:00;;;;;;;;;;;;;;;15.45;41.14;96278.91;2089349;28;1520;-60
2022/05/19 03:15:03;;;;;;;;;;;;;;;15.25;41.40;96268.44;2089415;28;1671;-61
2022/05/19 03:16:06;;;;;;;;;;;;;;;15.25;41.61;96272.88;2089852;28;1092;-60
2022/05/19 03:17:11;;;;;;;;;;;;;;;15.36;41.64;96272.69;2088736;28;1686;-60
2022/05/19 03:18:12;;;;;;;;;;;;;;;15.12;41.43;96270.59;2089520;28;1726;-59
2022/05/19 03:19:16;;;;;;;;;;;;;;;15.01;41.51;96270.78;2087936;28;1763;-61
2022/05/19 03:20:19;;;;;;;;;;;;;;;15.10;41.19;96277.84;2080299;28;1775;-60
2022/05/19 03:21:21;;;;;;;;;;;;;;;15.11;41.06;96274.22;2088133;28;1569;-60
2022/05/19 03:22:28;;;;;;;;;;;;;;;15.12;40.39;96273.22;2082471;28;1488;-59
2022/05/19 03:23:29;;;;;;;;;;;;;;;15.07;40.26;96280.78;2081586;28;1096;-60
2022/05/19 03:24:32;;;;;;;;;;;;;;;14.85;40.19;96274.03;2086411;28;1615;-59
2022/05/19 03:25:34;;;;;;;;;;;;;;;14.88;39.73;96274.59;2088764;28;1946;-60
2022/05/19 03:26:37;;;;;;;;;;;;;;;14.71;40.13;96273.53;2089592;28;1665;-59
2022/05/19 03:27:39;;;;;;;;;;;;;;;14.86;40.48;96273.91;2085749;28;1603;-60
2022/05/19 03:28:44;;;;;;;;;;;;;;;15.05;39.97;96275.66;2089444;28;1507;-60
2022/05/19 03:29:45;;;;;;;;;;;;;;;14.89;39.71;96276.25;2089342;28;1561;-60
2022/05/19 03:30:48;;;;;;;;;;;;;;;14.79;40.23;96270.16;2087955;28;1597;-59
2022/05/19 03:31:50;;;;;;;;;;;;;;;14.68;40.05;96283.53;2082804;28;2004;-59
2022/05/19 03:32:54;;;;;;;;;;;;;;;14.73;40.25;96281.31;2088081;28;1613;-60
2022/05/19 03:33:56;;;;;;;;;;;;;;;15.54;40.21;96276.22;2089825;28;1680;-61
2022/05/19 03:34:59;;;;;;;;;;;;;;;15.57;39.11;96283.03;2088595;28;1714;-60
2022/05/19 03:36:02;;;;;;;;;;;;;;;15.45;40.26;96281.56;2089856;28;1056;-62
2022/05/19 03:37:06;;;;;;;;;;;;;;;15.36;39.58;96286.78;2089080;28;1552;-60
2022/05/19 03:38:08;;;;;;;;;;;;;;;15.00;39.45;96287.66;2088666;28;1663;-60
2022/05/19 03:39:11;;;;;;;;;;;;;;;14.71;40.54;96288.59;2089271;28;1509;-59
2022/05/19 03:40:14;;;;;;;;;;;;;;;14.62;40.76;96292.84;2089407;28;1596;-60
2022/05/19 03:41:17;;;;;;;;;;;;;;;14.42;40.96;96294.72;2089139;28;1586;-60
2022/05/19 03:42:19;;;;;;;;;;;;;;;14.32;41.26;96290.44;2083772;28;1860;-60
2022/05/19 03:43:22;;;;;;;;;;;;;;;14.33;41.37;96300.03;2083544;28;1668;-60
2022/05/19 03:44:23;;;;;;;;;;;;;;;14.28;40.84;96303.06;2089626;28;1667;-60
2022/05/19 03:45:27;;;;;;;;;;;;;;;14.42;40.91;96300.00;2089406;28;1550;-60
2022/05/19 03:46:28;;;;;;;;;;;;;;;14.43;40.76;96300.84;2089508;28;2001;-60
2022/05/19 03:47:31;;;;;;;;;;;;;;;14.34;41.15;96302.53;2089021;28;1538;-60
2022/05/19 03:48:35;;;;;;;;;;;;;;;14.40;40.95;96309.91;2086080;28;1767;-65
2022/05/19 03:49:38;;;;;;;;;;;;;;;14.49;40.94;96309.03;2084921;28;1621;-61
2022/05/19 03:50:43;;;;;;;;;;;;;;;14.48;40.67;96312.69;2086974;28;1580;-64
2022/05/19 03:51:46;;;;;;;;;;;;;;;14.56;40.76;96316.41;2090050;28;1053;-60
2022/05/19 03:52:49;;;;;;;;;;;;;;;14.97;40.74;96317.88;2089831;28;1279;-61
2022/05/19 03:53:51;;;;;;;;;;;;;;;15.08;40.72;96315.06;2084815;28;1056;-60
2022/05/19 03:54:54;;;;;;;;;;;;;;;15.56;39.84;96311.34;2084648;28;1479;-59
2022/05/19 03:55:57;;;;;;;;;;;;;;;15.22;40.29;96308.44;2089974;28;1041;-60
2022/05/19 03:56:59;;;;;;;;;;;;;;;15.45;40.60;96310.69;2089870;28;1109;-60
2022/05/19 03:58:01;;;;;;;;;;;;;;;15.26;40.46;96309.81;2089937;28;1017;-67
2022/05/19 03:59:04;;;;;;;;;;;;;;;15.06;39.84;96318.81;2089716;28;1843;-60
2022/05/19 04:00:07;;;;;;;;;;;;;;;14.87;40.46;96320.53;2089026;28;1648;-60
2022/05/19 04:01:10;;;;;;;;;;;;;;;14.82;41.08;96322.78;2087118;28;1483;-60
2022/05/19 04:02:12;;;;;;;;;;;;;;;14.85;40.60;96327.81;2086336;28;1583;-60
2022/05/19 04:03:36;;;;;;;;;;;;;;;14.85;41.53;96326.94;2088409;28;1464;-60
2022/05/19 04:04:38;;;;;;;;;;;;;;;14.85;41.00;96327.81;2085279;28;1789;-60
2022/05/19 04:05:41;;;;;;;;;;;;;;;14.81;41.02;96329.06;2081373;28;1138;-59
2022/05/19 04:06:42;;;;;;;;;;;;;;;14.73;40.89;96328.94;2089549;28;1977;-59
2022/05/19 04:07:45;;;;;;;;;;;;;;;14.61;40.48;96324.75;2084917;28;1518;-58
2022/05/19 04:08:48;;;;;;;;;;;;;;;13.93;41.49;96330.91;2089659;28;1234;-59
2022/05/19 04:09:51;;;;;;;;;;;;;;;13.66;42.52;96334.22;2089822;28;1080;-59
2022/05/19 04:10:52;;;;;;;;;;;;;;;13.82;41.93;96331.84;2088339;28;1698;-60
2022/05/19 04:11:55;;;;;;;;;;;;;;;14.03;41.78;96336.22;2085192;28;1800;-60
2022/05/19 04:12:57;;;;;;;;;;;;;;;13.99;41.73;96338.28;2081626;28;1113;-60
2022/05/19 04:14:00;;;;;;;;;;;;;;;13.92;41.96;96334.53;2084386;28;1451;-60
2022/05/19 04:15:03;;;;;;;;;;;;;;;14.00;41.87;96331.22;2090074;28;1148;-60
2022/05/19 04:16:05;;;;;;;;;;;;;;;14.06;41.78;96333.28;2087287;28;1033;-61
2022/05/19 04:17:09;;;;;;;;;;;;;;;13.95;41.66;96333.41;2084801;28;1125;-61
2022/05/19 04:18:12;;;;;;;;;;;;;;;13.98;41.99;96333.16;2089905;28;1501;-60
2022/05/19 04:19:15;;;;;;;;;;;;;;;13.95;41.84;96336.91;2089646;28;1092;-61
2022/05/19 04:20:18;;;;;;;;;;;;;;;14.02;42.01;96330.06;2089877;28;1112;-60
2022/05/19 04:21:20;;;;;;;;;;;;;;;14.14;42.02;96335.22;2089217;28;2644;-60
2022/05/19 04:22:23;;;;;;;;;;;;;;;14.10;41.49;96333.84;2089835;28;988;-60
2022/05/19 04:23:25;;;;;;;;;;;;;;;14.00;42.29;96337.31;2089383;28;1096;-60
2022/05/19 04:24:28;;;;;;;;;;;;;;;14.29;41.95;96328.56;2089115;28;1071;-61
2022/05/19 04:25:30;;;;;;;;;;;;;;;14.20;41.63;96332.88;2089495;28;1064;-61
2022/05/19 04:26:33;;;;;;;;;;;;;;;14.22;41.81;96336.19;2088935;28;2015;-61
2022/05/19 04:27:34;;;;;;;;;;;;;;;14.14;41.85;96335.22;2084519;28;1324;-61
2022/05/19 04:28:37;;;;;;;;;;;;;;;14.13;42.10;96331.75;2084048;28;1312;-61
2022/05/19 04:29:39;;;;;;;;;;;;;;;14.09;41.99;96337.47;2088764;28;1096;-60
2022/05/19 04:30:42;;;;;;;;;;;;;;;13.91;42.74;96338.13;2088972;28;1113;-61
2022/05/19 04:31:44;;;;;;;;;;;;;;;14.08;42.72;96339.25;2090667;28;1353;-60
2022/05/19 04:32:47;;;;;;;;;;;;;;;14.12;42.67;96334.53;2090815;28;985;-60
2022/05/19 04:33:49;;;;;;;;;;;;;;;14.19;42.42;96335.66;2090704;28;1105;-61
2022/05/19 04:34:54;;;;;;;;;;;;;;;13.90;42.85;96335.63;2090624;28;950;-60
2022/05/19 04:35:56;;;;;;;;;;;;;;;13.84;43.07;96334.38;2090591;28;1029;-61
2022/05/19 04:36:58;;;;;;;;;;;;;;;14.06;42.95;96341.22;2090748;28;1279;-61
2022/05/19 04:38:05;;;;;;;;;;;;;;;14.28;42.81;96335.66;2090250;28;1160;-61
2022/05/19 04:39:07;;;;;;;;;;;;;;;14.46;42.18;96338.44;2086253;28;1198;-61
2022/05/19 04:40:10;;;;;;;;;;;;;;;14.20;42.15;96332.88;2085876;28;1219;-61
2022/05/19 04:41:12;;;;;;;;;;;;;;;13.66;43.34;96336.00;2091120;28;1294;-60
2022/05/19 04:42:15;;;;;;;;;;;;;;;13.77;43.31;96335.88;2091405;28;2060;-61
2022/05/19 04:43:21;;;;;;;;;;;;;;;13.85;43.05;96338.69;2091467;28;1021;-61
2022/05/19 04:44:24;;;;;;;;;;;;;;;13.75;43.23;96337.84;2091377;28;1057;-60
2022/05/19 04:45:26;;;;;;;;;;;;;;;13.78;43.31;96338.41;2091086;28;1009;-61
2022/05/19 04:46:28;;;;;;;;;;;;;;;13.68;43.65;96340.19;2091359;28;1103;-61
2022/05/19 04:47:30;;;;;;;;;;;;;;;13.48;43.71;96341.06;2091248;28;1168;-61
2022/05/19 04:48:34;;;;;;;;;;;;;;;13.90;43.63;96333.81;2091199;28;1198;-61
2022/05/19 04:49:36;;;;;;;;;;;;;;;14.07;42.74;96346.34;2090959;28;1575;-60
2022/05/19 04:50:50;;;;;;;;;;;;;;;13.97;42.82;96337.59;2080378;28;1352;-61
2022/05/19 04:51:52;;;;;;;;;;;;;;;13.88;43.25;96341.03;2081609;28;1168;-61
2022/05/19 04:52:56;;;;;;;;;;;;;;;13.92;42.98;96339.81;2082730;28;1053;-60
2022/05/19 04:53:59;;;;;;;;;;;;;;;14.00;42.87;96342.59;2083028;28;1092;-60
2022/05/19 04:55:01;;;;;;;;;;;;;;;14.16;42.92;96346.50;2083013;28;1340;-60
2022/05/19 04:56:10;;;;;;;;;;;;;;;14.23;43.08;96339.69;2082894;28;1021;-61
2022/05/19 04:57:13;;;;;;;;;;;;;;;14.33;42.67;96337.88;2082978;28;1204;-61
2022/05/19 04:58:16;;;;;;;;;;;;;;;14.17;42.82;96348.16;2082975;28;988;-61
2022/05/19 04:59:18;;;;;;;;;;;;;;;13.95;43.29;96342.19;2082966;28;1168;-60
2022/05/19 05:00:22;;;;;;;;;;;;;;;13.90;43.38;96354.97;2082413;28;1153;-61
2022/05/19 05:01:23;;;;;;;;;;;;;;;14.00;43.03;96347.06;2083300;28;1223;-60
2022/05/19 05:02:26;;;;;;;;;;;;;;;13.94;43.04;96343.16;2074244;28;1742;-60
2022/05/19 05:03:29;;;;;;;;;;;;;;;14.00;43.12;96350.53;2082816;28;1989;-60
2022/05/19 05:04:32;;;;;;;;;;;;;;;13.97;43.37;96352.59;2082950;28;1065;-61
2022/05/19 05:05:34;;;;;;;;;;;;;;;14.12;43.40;96355.69;2082881;28;997;-60
2022/05/19 05:06:39;;;;;;;;;;;;;;;14.19;43.34;96352.34;2082991;28;1006;-61
2022/05/19 05:07:41;;;;;;;;;;;;;;;14.25;43.59;96346.53;2082576;28;1918;-61
2022/05/19 05:08:43;;;;;;;;;;;;;;;14.40;43.41;96352.22;2082902;28;1179;-61
2022/05/19 05:09:45;;;;;;;;;;;;;;;14.66;43.01;96346.34;2082730;28;1374;-61
2022/05/19 05:10:48;;;;;;;;;;;;;;;14.57;42.58;96355.09;2083002;28;1041;-61
2022/05/19 05:11:50;;;;;;;;;;;;;;;14.17;43.10;96358.72;2082946;28;1018;-61
2022/05/19 05:12:53;;;;;;;;;;;;;;;14.17;43.71;96359.59;2080133;28;1109;-62
2022/05/19 05:13:54;;;;;;;;;;;;;;;14.04;43.56;96359.00;2077421;28;959;-61
2022/05/19 05:14:57;;;;;;;;;;;;;;;13.91;44.12;96359.25;2082626;28;1559;-62
2022/05/19 05:15:59;;;;;;;;;;;;;;;14.02;44.21;96353.84;2082805;28;4073;-61
2022/05/19 05:17:02;;;;;;;;;;;;;;;14.19;44.01;96359.44;2082975;28;1875;-61
2022/05/19 05:18:05;;;;;;;;;;;;;;;14.23;43.87;96366.13;2083017;28;1092;-61
2022/05/19 05:19:08;;;;;;;;;;;;;;;14.07;43.58;96359.56;2082977;28;1068;-59
2022/05/19 05:20:11;;;;;;;;;;;;;;;14.13;44.18;96363.47;2082356;28;1160;-59
2022/05/19 05:21:14;;;;;;;;;;;;;;;14.25;43.87;96362.38;2082894;28;1037;-61
2022/05/19 05:22:17;;;;;;;;;;;;;;;14.32;43.75;96362.66;2082366;28;1125;-58
2022/05/19 05:23:20;;;;;;;;;;;;;;;14.49;43.03;96359.28;2082804;28;2027;-59
2022/05/19 05:24:22;;;;;;;;;;;;;;;14.48;43.15;96362.94;2078388;28;1121;-60
2022/05/19 05:25:29;;;;;;;;;;;;;;;14.51;43.23;96362.66;2077761;28;1077;-60
2022/05/19 05:26:31;;;;;;;;;;;;;;;14.51;43.30;96364.44;2082872;28;966;-60
2022/05/19 05:27:33;;;;;;;;;;;;;;;14.64;43.41;96366.81;2082554;28;1938;-59
2022/05/19 05:28:37;;;;;;;;;;;;;;;14.81;42.93;96360.81;2082723;28;1021;-59
2022/05/19 05:29:39;;;;;;;;;;;;;;;14.85;43.08;96362.22;2082426;28;1064;-60
2022/05/19 05:30:43;;;;;;;;;;;;;;;14.82;42.89;96359.81;2082364;28;1155;-59
2022/05/19 05:31:45;;;;;;;;;;;;;;;14.72;43.13;96359.84;2082619;28;1305;-60
2022/05/19 05:32:48;;;;;;;;;;;;;;;14.84;43.32;96360.53;2082872;28;1048;-59
2022/05/19 05:33:49;;;;;;;;;;;;;;;14.96;42.91;96356.72;2082699;28;1148;-59
2022/05/19 05:34:52;;;;;;;;;;;;;;;15.24;42.89;96358.59;2082847;28;1527;-59
2022/05/19 05:35:54;;;;;;;;;;;;;;;15.34;42.22;96352.28;2078155;28;1168;-60